Terminal Aerodrome Forecast
Issued by NWS

Home | Current Version | Previous Version | Text Only | Print | Product List | Glossary On
Versions: 1 2 3 4 5 6 7 8 9 10 11 12 13 14 15 16 17 18 19 20 21 22 23 24 25 26 27 28 29 30 31 32 33 34 35 36 37 38 39 40 41 42 43 44 45 46 47 48 49 50
828
FTUS41 KCTP 121442 AAI
TAFBFD
TAF AMD
KBFD 121442Z 1215/1312 28006KT 3SM -SN BR BKN010 OVC018
      TEMPO 1215/1217 29012G20KT 1 1/2SM BR OVC015
     FM121700 29013G21KT 1 1/2SM -SN BR OVC015
     FM122200 30015G25KT 4SM -SN BKN025 OVC050
     FM130300 30015G25KT 3/4SM -SN BLSN OVC018=

USA.gov is the U.S. government's official web portal to all federal, state and local government web resources and services.